Архив погоды в Ковде

Метеограмма Ковда
Среда, 22 Мая
Время местн. Темп Ветер Видим Явления Облачность нижн/средн/верх Атм. давл. Влжн Точка росы ВНГО R Сост. почвы Tg s
Напр Скр Прв ур.ст ур.м изм
21:00 +4.8° С,С-В 6 7 50 км - преимущественно облачно 763 765 +0.5 60% -2.3° 1 км 0.5 - - -
18:00 +5.3° С 5 7 50 км - облачно 762 764 0 70% +0.2° 1 км - - - -
15:00 - +5° С 3 5 20 км - - 762 764 -0.5 71% +0.1° - - - - -
12:00 +2.3° С-В 2 3 20 км небо без изменений {ливневые осадки} облачно 763 765 -0.2 88% +0.6° 1 км - - - -
09:00 +1.3° В,С-В 3 6 10 км слабый ливневый дождь облачно 763 765 +0.2 94% +0.4° 600 м 2 Влажная (без луж) - -
06:00 - +2.4° В 3 6 16 км - - 763 764 -0.2 89% +0.8° - - - - -
03:00 - +4.6° В,С-В 3 6 20 км - - 763 765 +0.1 81% +1.6° - - - - -
00:00 - +6.1° В,С-В 2 3 20 км - - 763 765 +0.5 79% +2.7° - - - - -
Вторник, 21 Мая
Время местн. Темп Ветер Видим Явления Облачность нижн/средн/верх Атм. давл. Влжн Точка росы ВНГО R Сост. почвы Tg s
Напр Скр Прв ур.ст ур.м изм
21:00 +8.3° Ю-В 1 2 50 км - преимущественно облачно 762 764 -0.6 70% +3.2° 1 км 0 - - -
18:00 +9.2° В 1 2 50 км - преимущественно облачно 763 765 -0.7 63% +2.6° 1 км - - - -
15:00 - +9.3° В,С-В 2 4 20 км - - 764 765 -0.2 64% +2.9° - - - - -
12:00 +6.9° В 3 5 50 км - облачно 764 766 -0.2 80% +3.7° 1 км - - - -
09:00 +5.8° В 3 5 50 км - облачно 764 766 -0.2 84% +3.3° 1 км 0 Влажная (без луж) - -
06:00 - +4.9° В 2 4 20 км - - 764 766 -0.2 86% +2.7° - - - - -
03:00 - +4.4° Ю-В 1 3 20 км - - 765 766 -0.4 84% +2° - - - - -
00:00 - +4.3° Ю-В 1 2 20 км - - 765 767 -0.1 83% +1.6° - - - - -
Понедельник, 20 Мая
Время местн. Темп Ветер Видим Явления Облачность нижн/средн/верх Атм. давл. Влжн Точка росы ВНГО R Сост. почвы Tg s
Напр Скр Прв ур.ст ур.м изм
21:00 +5.8° В,Ю-В 2 3 50 км - облачно 765 767 -0.5 77% +2° 1 км 0 - - -
18:00 +7.2° В,Ю-В 2 5 более 50 км - облачно 765 767 -0.9 66% +1.3° 1 км - - - -
15:00 - +8.5° В,Ю-В 3 6 20 км - - 766 768 -0.8 60% +1.3° - - - - -
12:00 +8.5° В,Ю-В 3 6 50 км - облачно 767 769 -0.3 58% +0.7° 1 км - - - -
09:00 +8.1° Ю-В 2 4 50 км - облачно с прояснениями 767 769 -0.3 56% -0.2° 1 км 0 Влажная (без луж) - -
06:00 - +5.1° Ю,Ю-В 1 2 20 км - - 768 769 -0.1 66% -0.7° - - - - -
03:00 - +4° Ю 1 1 20 км - - 768 769 +0.6 72% -0.6° - - - - -
00:00 - +5.3° Ю 2 4 20 км - - 767 769 +0.4 67% -0.4° - - - - -
Воскресенье, 19 Мая
Время местн. Темп Ветер Видим Явления Облачность нижн/средн/верх Атм. давл. Влжн Точка росы ВНГО R Сост. почвы Tg s
Напр Скр Прв ур.ст ур.м изм
21:00 +7.3° Ю,Ю-В 2 3 50 км - переменная облачность 767 768 -0.8 56% -0.9° более 2.5 км 0 - - -
18:00 +9.2° В 2 3 50 км - переменная облачность 768 769 -0.5 50% -0.7° более 2.5 км - - - -